createdAt,value
2023-05-01T00:00:29.361Z,11.27
2023-05-01T00:03:33.532Z,11.05
2023-05-01T00:06:37.904Z,11.93
2023-05-01T00:09:41.313Z,10.53
2023-05-01T00:12:44.682Z,11.85
2023-05-01T00:15:48.725Z,10.88
2023-05-01T00:18:52.633Z,10.00
2023-05-01T00:21:55.972Z,10.77
2023-05-01T00:24:59.567Z,10.20
2023-05-01T00:28:03.308Z,12.80
2023-05-01T00:31:06.731Z,11.43
2023-05-01T00:34:11.627Z,10.90
2023-05-01T00:37:16.349Z,10.87
2023-05-01T00:40:19.884Z,12.03
2023-05-01T00:43:23.327Z,9.60
2023-05-01T00:46:27.057Z,11.57
2023-05-01T00:49:31.149Z,15.80
2023-05-01T00:52:34.533Z,11.73
2023-05-01T00:55:39.330Z,15.17
2023-05-01T00:58:42.733Z,11.05
2023-05-01T01:01:47.165Z,9.38
2023-05-01T01:04:50.949Z,10.85
2023-05-01T01:08:24.411Z,9.70
2023-05-01T01:11:34.794Z,9.17
2023-05-01T01:14:55.469Z,9.40
2023-05-01T01:18:07.462Z,10.95
2023-05-01T01:21:23.718Z,9.45
2023-05-01T01:24:46.659Z,11.67
2023-05-01T01:28:06.442Z,10.43
2023-05-01T01:31:42.171Z,10.15
2023-05-01T01:34:50.781Z,10.40
2023-05-01T01:38:06.752Z,10.48
2023-05-01T01:41:21.696Z,9.90
2023-05-01T01:44:37.428Z,10.63
2023-05-01T01:47:43.554Z,9.85
2023-05-01T01:50:48.352Z,8.77
2023-05-01T01:53:57.107Z,8.65
2023-05-01T01:57:02.717Z,14.63
2023-05-01T02:00:11.424Z,8.37
2023-05-01T02:03:22.544Z,10.20
2023-05-01T02:06:27.009Z,7.95
2023-05-01T02:09:31.578Z,8.85
2023-05-01T02:12:36.359Z,8.27
2023-05-01T02:15:41.702Z,9.30
2023-05-01T02:18:47.133Z,8.93
2023-05-01T02:21:52.185Z,10.23
2023-05-01T02:24:57.875Z,10.65
2023-05-01T02:28:06.685Z,9.20
2023-05-01T02:31:10.996Z,8.00
2023-05-01T02:34:14.591Z,9.82
2023-05-01T02:37:18.028Z,10.30
2023-05-01T02:40:22.944Z,8.35
2023-05-01T02:43:28.987Z,11.03
2023-05-01T02:46:36.185Z,9.83
2023-05-01T02:49:42.201Z,10.73
2023-05-01T02:52:46.500Z,6.95
2023-05-01T02:56:13.163Z,8.60
2023-05-01T02:59:16.820Z,10.37
2023-05-01T03:02:20.343Z,9.80
2023-05-01T03:05:23.976Z,8.50
2023-05-01T03:08:27.406Z,8.73
2023-05-01T03:11:31.005Z,6.90
2023-05-01T03:14:35.087Z,7.90
2023-05-01T03:17:38.702Z,9.83
2023-05-01T03:20:53.589Z,8.85
2023-05-01T03:23:57.762Z,12.25
2023-05-01T03:27:01.473Z,8.32
2023-05-01T03:30:05.292Z,7.17
2023-05-01T03:33:13.619Z,7.57
2023-05-01T03:36:17.589Z,9.15
2023-05-01T03:39:22.748Z,8.68
2023-05-01T03:42:54.965Z,7.90
2023-05-01T03:46:00.437Z,8.00
2023-05-01T03:49:03.963Z,11.10
2023-05-01T03:52:14.765Z,7.80
2023-05-01T03:55:19.334Z,7.90
2023-05-01T03:58:24.559Z,7.10
2023-05-01T04:01:28.093Z,9.27
2023-05-01T04:04:31.681Z,7.63
2023-05-01T04:07:35.550Z,7.13
2023-05-01T04:10:39.098Z,7.13
2023-05-01T04:13:42.514Z,8.60
2023-05-01T04:16:46.786Z,8.20
2023-05-01T04:19:50.427Z,6.27
2023-05-01T04:22:55.121Z,8.63
2023-05-01T04:25:58.502Z,9.10
2023-05-01T04:29:01.931Z,6.10
2023-05-01T04:32:05.839Z,9.07
2023-05-01T04:35:09.701Z,8.83
2023-05-01T04:38:14.618Z,6.85
2023-05-01T04:41:19.525Z,8.07
2023-05-01T04:44:24.638Z,7.13
2023-05-01T04:47:28.989Z,7.00
2023-05-01T04:50:32.605Z,7.93
2023-05-01T04:53:36.746Z,6.85
2023-05-01T04:56:42.104Z,8.75
2023-05-01T04:59:45.649Z,7.78
2023-05-01T05:02:50.259Z,8.07
2023-05-01T05:05:53.630Z,5.87
2023-05-01T05:08:57.974Z,7.22
2023-05-01T05:12:03.822Z,7.78
2023-05-01T05:15:08.712Z,10.57
2023-05-01T05:18:12.638Z,7.00
2023-05-01T05:21:16.650Z,7.03
2023-05-01T05:24:26.143Z,6.35
2023-05-01T05:27:30.008Z,9.13
2023-05-01T05:30:33.765Z,11.00
2023-05-01T05:33:37.254Z,8.03
2023-05-01T05:36:41.699Z,5.80
2023-05-01T05:39:45.695Z,6.15
2023-05-01T05:42:49.375Z,4.97
2023-05-01T05:45:56.630Z,7.57
2023-05-01T05:49:00.217Z,8.18
2023-05-01T05:52:04.326Z,6.03
2023-05-01T05:55:08.360Z,5.00
2023-05-01T05:58:12.445Z,6.43
2023-05-01T06:01:16.396Z,7.93
2023-05-01T06:04:19.960Z,8.25
2023-05-01T06:07:24.032Z,6.90
2023-05-01T06:10:27.387Z,5.88
2023-05-01T06:13:31.317Z,6.20
2023-05-01T06:16:35.415Z,5.03
2023-05-01T06:19:38.960Z,13.60
2023-05-01T06:22:46.904Z,6.03
2023-05-01T06:26:13.374Z,6.80
2023-05-01T06:29:18.450Z,7.20
2023-05-01T06:32:21.851Z,6.97
2023-05-01T06:35:25.466Z,7.07
2023-05-01T06:38:28.889Z,5.80
2023-05-01T06:41:32.950Z,6.55
2023-05-01T06:44:36.278Z,5.63
2023-05-01T06:47:39.728Z,7.88
2023-05-01T06:50:45.264Z,6.53
2023-05-01T06:53:48.615Z,9.13
2023-05-01T06:56:52.718Z,7.80
2023-05-01T06:59:56.905Z,5.93
2023-05-01T07:03:00.789Z,7.03
2023-05-01T07:06:04.590Z,5.88
2023-05-01T07:09:08.245Z,6.27
2023-05-01T07:12:11.687Z,6.18
2023-05-01T07:15:16.509Z,7.32
2023-05-01T07:18:20.185Z,7.82
2023-05-01T07:21:23.592Z,5.57
2023-05-01T07:24:27.033Z,7.43
2023-05-01T07:27:30.423Z,21.70
2023-05-01T07:30:34.296Z,11.23
2023-05-01T07:33:37.865Z,9.35
2023-05-01T07:36:41.828Z,13.33
2023-05-01T07:39:45.511Z,5.93
2023-05-01T07:42:48.894Z,8.75
2023-05-01T07:46:00.545Z,8.07
2023-05-01T07:49:04.401Z,12.48
2023-05-01T07:52:08.539Z,7.78
2023-05-01T07:55:12.050Z,7.10
2023-05-01T07:58:15.569Z,11.05
2023-05-01T08:01:19.047Z,37.67
2023-05-01T08:04:23.531Z,7.03
2023-05-01T08:07:26.903Z,6.55
2023-05-01T08:10:30.406Z,11.67
2023-05-01T08:13:34.096Z,5.20
2023-05-01T08:16:37.603Z,5.57
2023-05-01T08:19:40.969Z,6.68
2023-05-01T08:22:44.402Z,5.70
2023-05-01T08:25:50.933Z,10.80
2023-05-01T08:28:54.332Z,6.88
2023-05-01T08:31:59.468Z,6.18
2023-05-01T08:35:03.510Z,6.15
2023-05-01T08:38:06.921Z,11.23
2023-05-01T08:41:16.281Z,9.03
2023-05-01T08:44:21.146Z,6.53
2023-05-01T08:47:25.409Z,6.07
2023-05-01T08:50:29.417Z,9.05
2023-05-01T08:53:33.457Z,6.83
2023-05-01T08:56:38.830Z,5.00
2023-05-01T08:59:42.921Z,6.25
2023-05-01T09:02:48.880Z,8.95
2023-05-01T09:05:53.577Z,6.53
2023-05-01T09:08:56.988Z,6.40
2023-05-01T09:12:18.922Z,4.57
2023-05-01T09:15:22.776Z,6.80
2023-05-01T09:18:27.082Z,7.22
2023-05-01T09:21:32.189Z,5.03
2023-05-01T09:24:36.095Z,4.83
2023-05-01T09:27:39.875Z,6.77
2023-05-01T09:30:43.705Z,5.40
2023-05-01T09:34:01.928Z,4.80
2023-05-01T09:37:05.841Z,5.30
2023-05-01T09:40:16.423Z,5.30
2023-05-01T09:43:27.752Z,5.23
2023-05-01T09:46:44.005Z,5.40
2023-05-01T09:49:48.909Z,5.70
2023-05-01T09:52:52.883Z,6.25
2023-05-01T09:56:03.579Z,5.77
2023-05-01T09:59:20.987Z,7.23
2023-05-01T10:02:32.518Z,6.20
2023-05-01T10:05:45.476Z,6.97
2023-05-01T10:08:50.752Z,7.43
2023-05-01T10:11:57.572Z,6.03
2023-05-01T10:15:10.838Z,6.07
2023-05-01T10:18:21.828Z,6.10
2023-05-01T10:21:25.610Z,6.20
2023-05-01T10:24:29.291Z,7.10
2023-05-01T10:27:33.739Z,6.77
2023-05-01T10:30:38.306Z,9.83
2023-05-01T10:33:42.996Z,6.95
2023-05-01T10:36:55.081Z,5.13
2023-05-01T10:39:58.521Z,7.00
2023-05-01T10:43:18.433Z,5.70
2023-05-01T10:46:21.793Z,6.47
2023-05-01T10:49:25.379Z,6.47
2023-05-01T10:52:28.811Z,7.55
2023-05-01T10:55:40.085Z,6.20
2023-05-01T10:58:44.084Z,4.90
2023-05-01T11:01:51.958Z,5.57
2023-05-01T11:04:57.113Z,6.93
2023-05-01T11:08:32.253Z,6.95
2023-05-01T11:11:35.587Z,5.68
2023-05-01T11:14:58.116Z,5.43
2023-05-01T11:18:03.968Z,7.90
2023-05-01T11:21:09.140Z,5.72
2023-05-01T11:24:12.844Z,7.38
2023-05-01T11:27:16.777Z,4.90
2023-05-01T11:30:21.146Z,6.63
2023-05-01T11:33:26.298Z,6.70
2023-05-01T11:36:30.872Z,7.00
2023-05-01T11:39:35.011Z,7.35
2023-05-01T11:42:38.713Z,6.32
2023-05-01T11:45:42.235Z,5.17
2023-05-01T11:48:50.725Z,5.27
2023-05-01T11:51:58.395Z,5.70
2023-05-01T11:55:02.128Z,7.18
2023-05-01T11:58:06.330Z,6.05
2023-05-01T12:01:10.004Z,6.20
2023-05-01T12:04:23.321Z,5.73
2023-05-01T12:07:26.791Z,6.80
2023-05-01T12:10:31.868Z,8.27
2023-05-01T12:13:36.764Z,5.55
2023-05-01T12:16:40.704Z,5.33
2023-05-01T12:19:51.087Z,6.17
2023-05-01T12:22:55.146Z,7.05
2023-05-01T12:25:58.639Z,6.80
2023-05-01T12:29:06.888Z,7.53
2023-05-01T12:32:10.779Z,7.20
2023-05-01T12:35:16.086Z,5.70
2023-05-01T12:38:21.457Z,5.82
2023-05-01T12:41:47.539Z,5.50
2023-05-01T12:45:01.105Z,5.70
2023-05-01T12:48:12.653Z,5.13
2023-05-01T12:51:22.960Z,6.63
2023-05-01T12:54:29.746Z,5.03
2023-05-01T12:57:33.210Z,6.40
2023-05-01T13:00:49.683Z,6.07
2023-05-01T13:03:53.510Z,7.13
2023-05-01T13:06:58.281Z,5.07
2023-05-01T13:10:03.523Z,7.15
2023-05-01T13:13:07.533Z,6.40
2023-05-01T13:16:13.435Z,5.30
2023-05-01T13:19:29.706Z,6.00
2023-05-01T13:22:37.755Z,6.10
2023-05-01T13:25:41.567Z,8.50
2023-05-01T13:28:45.783Z,6.32
2023-05-01T13:31:49.348Z,6.57
2023-05-01T13:34:54.250Z,7.57
2023-05-01T13:37:57.706Z,5.30
2023-05-01T13:41:01.176Z,6.43
2023-05-01T13:44:07.692Z,4.97
2023-05-01T13:47:17.893Z,5.60
2023-05-01T13:50:21.632Z,6.23
2023-05-01T13:53:25.326Z,5.03
2023-05-01T13:56:28.943Z,8.23
2023-05-01T13:59:41.363Z,4.80
2023-05-01T14:02:48.647Z,5.85
2023-05-01T14:05:52.591Z,4.87
2023-05-01T14:09:00.269Z,5.37
2023-05-01T14:12:03.818Z,6.72
2023-05-01T14:15:10.781Z,5.57
2023-05-01T14:18:17.774Z,5.90
2023-05-01T14:21:22.948Z,4.77
2023-05-01T14:24:27.596Z,6.03
2023-05-01T14:27:30.926Z,5.80
2023-05-01T14:30:38.876Z,6.95
2023-05-01T14:33:45.914Z,5.72
2023-05-01T14:36:49.406Z,6.60
2023-05-01T14:39:52.872Z,5.77
2023-05-01T14:42:58.725Z,5.70
2023-05-01T14:46:02.247Z,4.93
2023-05-01T14:49:06.206Z,6.50
2023-05-01T14:52:10.986Z,5.37
2023-05-01T14:55:17.438Z,6.03
2023-05-01T14:58:20.903Z,6.30
2023-05-01T15:01:24.551Z,5.57
2023-05-01T15:04:28.352Z,6.40
2023-05-01T15:07:32.216Z,5.00
2023-05-01T15:10:36.100Z,4.90
2023-05-01T15:13:41.511Z,6.18
2023-05-01T15:16:44.934Z,6.88
2023-05-01T15:19:48.396Z,9.05
2023-05-01T15:22:51.891Z,6.70
2023-05-01T15:25:55.698Z,5.70
2023-05-01T15:28:59.050Z,5.68
2023-05-01T15:32:11.883Z,5.75
2023-05-01T15:35:16.757Z,5.28
2023-05-01T15:38:22.956Z,5.03
2023-05-01T15:41:26.275Z,5.33
2023-05-01T15:44:29.724Z,6.28
2023-05-01T15:47:33.151Z,7.38
2023-05-01T15:50:36.592Z,7.22
2023-05-01T15:53:40.039Z,7.00
2023-05-01T15:56:43.408Z,7.40
2023-05-01T15:59:51.328Z,6.38
2023-05-01T16:02:54.931Z,7.78
2023-05-01T16:05:59.383Z,7.13
2023-05-01T16:09:05.157Z,7.53
2023-05-01T16:12:08.853Z,7.27
2023-05-01T16:15:13.852Z,5.43
2023-05-01T16:18:23.462Z,6.72
2023-05-01T16:21:28.276Z,7.65
2023-05-01T16:24:35.498Z,5.67
2023-05-01T16:27:44.416Z,8.00
2023-05-01T16:30:48.787Z,6.55
2023-05-01T16:33:53.892Z,7.50
2023-05-01T16:36:57.430Z,7.57
2023-05-01T16:40:01.546Z,7.77
2023-05-01T16:43:05.553Z,6.60
2023-05-01T16:46:09.648Z,6.97
2023-05-01T16:49:16.125Z,12.00
2023-05-01T16:52:19.848Z,6.18
2023-05-01T16:55:24.897Z,5.57
2023-05-01T16:58:29.815Z,6.40
2023-05-01T17:01:33.847Z,6.43
2023-05-01T17:04:37.342Z,10.65
2023-05-01T17:07:40.886Z,8.95
2023-05-01T17:10:45.264Z,7.03
2023-05-01T17:13:48.773Z,7.63
2023-05-01T17:16:52.949Z,5.45
2023-05-01T17:19:56.839Z,6.05
2023-05-01T17:23:00.594Z,13.55
2023-05-01T17:26:05.457Z,8.73
2023-05-01T17:29:08.974Z,7.77
2023-05-01T17:32:15.887Z,8.82
2023-05-01T17:35:21.501Z,7.05
2023-05-01T17:38:24.849Z,8.57
2023-05-01T17:41:28.478Z,7.00
2023-05-01T17:44:33.196Z,16.90
2023-05-01T17:47:41.564Z,14.90
2023-05-01T17:50:45.427Z,17.17
2023-05-01T17:53:49.059Z,31.50
2023-05-01T17:56:52.566Z,62.13
2023-05-01T17:59:57.137Z,33.33
2023-05-01T18:03:01.629Z,18.40
2023-05-01T18:06:06.153Z,17.42
2023-05-01T18:09:10.902Z,9.85
2023-05-01T18:12:15.010Z,7.00
2023-05-01T18:15:22.914Z,10.17
2023-05-01T18:18:26.931Z,9.85
2023-05-01T18:21:30.660Z,6.82
2023-05-01T18:24:34.082Z,6.93
2023-05-01T18:27:38.318Z,6.80
2023-05-01T18:30:41.888Z,7.67
2023-05-01T18:33:45.508Z,9.00
2023-05-01T18:36:52.275Z,9.63
2023-05-01T18:39:55.983Z,7.22
2023-05-01T18:43:00.141Z,8.90
2023-05-01T18:46:03.839Z,7.23
2023-05-01T18:49:07.774Z,8.57
2023-05-01T18:52:11.649Z,8.85
2023-05-01T18:55:16.297Z,7.75
2023-05-01T18:58:19.976Z,9.13
2023-05-01T19:01:23.849Z,18.60
2023-05-01T19:04:27.529Z,15.70
2023-05-01T19:07:31.464Z,18.20
2023-05-01T19:10:37.341Z,21.60
2023-05-01T19:13:41.251Z,16.90
2023-05-01T19:16:45.450Z,20.30
2023-05-01T19:19:50.726Z,31.33
2023-05-01T19:22:54.168Z,30.65
2023-05-01T19:25:58.239Z,52.72
2023-05-01T19:29:01.968Z,81.70
2023-05-01T19:32:07.678Z,54.03
2023-05-01T19:35:11.831Z,41.08
2023-05-01T19:38:15.864Z,29.40
2023-05-01T19:41:19.613Z,15.25
2023-05-01T19:44:23.315Z,31.67
2023-05-01T19:47:27.278Z,26.17
2023-05-01T19:50:32.938Z,31.15
2023-05-01T19:53:37.224Z,18.40
2023-05-01T19:56:41.002Z,15.35
2023-05-01T19:59:44.760Z,12.93
2023-05-01T20:02:48.751Z,17.93
2023-05-01T20:05:52.721Z,21.88
2023-05-01T20:08:56.569Z,15.07
2023-05-01T20:11:59.904Z,15.82
2023-05-01T20:15:03.845Z,16.53
2023-05-01T20:18:07.615Z,20.30
2023-05-01T20:21:11.254Z,18.65
2023-05-01T20:24:14.613Z,13.18
2023-05-01T20:27:18.216Z,11.77
2023-05-01T20:30:21.672Z,18.10
2023-05-01T20:33:25.352Z,18.83
2023-05-01T20:36:29.593Z,18.70
2023-05-01T20:39:33.009Z,24.40
2023-05-01T20:42:36.489Z,17.08
2023-05-01T20:45:39.932Z,15.17
2023-05-01T20:48:44.124Z,21.60
2023-05-01T20:51:47.768Z,36.60
2023-05-01T20:54:52.359Z,23.63
2023-05-01T20:57:56.071Z,20.98
2023-05-01T21:01:00.440Z,15.60
2023-05-01T21:04:04.730Z,12.43
2023-05-01T21:07:09.291Z,12.50
2023-05-01T21:10:14.605Z,14.55
2023-05-01T21:13:19.023Z,18.33
2023-05-01T21:16:22.572Z,14.97
2023-05-01T21:19:26.426Z,13.97
2023-05-01T21:22:29.995Z,16.25
2023-05-01T21:25:33.514Z,14.50
2023-05-01T21:28:39.134Z,16.23
2023-05-01T21:31:42.833Z,11.40
2023-05-01T21:34:46.462Z,11.47
2023-05-01T21:37:50.028Z,10.32
2023-05-01T21:40:53.709Z,11.38
2023-05-01T21:43:57.367Z,14.40
2023-05-01T21:47:02.545Z,11.03
2023-05-01T21:50:07.848Z,10.30
2023-05-01T21:53:11.262Z,10.75
2023-05-01T21:56:15.544Z,8.75
2023-05-01T21:59:19.142Z,12.25
2023-05-01T22:02:22.571Z,10.53
2023-05-01T22:05:29.280Z,10.57
2023-05-01T22:08:32.712Z,9.77
2023-05-01T22:11:36.701Z,11.25
2023-05-01T22:14:46.733Z,12.85
2023-05-01T22:17:51.156Z,10.20
2023-05-01T22:20:55.318Z,10.83
2023-05-01T22:23:58.775Z,12.15
2023-05-01T22:27:02.801Z,10.40
2023-05-01T22:30:06.733Z,12.25
2023-05-01T22:33:10.322Z,11.27
2023-05-01T22:36:13.966Z,10.60
2023-05-01T22:39:17.650Z,11.35
2023-05-01T22:42:21.551Z,11.82
2023-05-01T22:45:24.961Z,10.50
2023-05-01T22:48:28.316Z,9.30
2023-05-01T22:51:32.552Z,9.90
2023-05-01T22:54:36.022Z,10.35
2023-05-01T22:57:39.451Z,10.38
2023-05-01T23:00:42.937Z,9.00
2023-05-01T23:03:46.633Z,10.97
2023-05-01T23:06:50.266Z,11.17
2023-05-01T23:09:53.708Z,11.13
2023-05-01T23:12:57.426Z,8.90
2023-05-01T23:16:00.847Z,12.23
2023-05-01T23:19:05.015Z,12.43
2023-05-01T23:22:11.080Z,22.70
2023-05-01T23:25:17.467Z,35.50
2023-05-01T23:28:22.504Z,30.13
2023-05-01T23:31:27.132Z,25.15
2023-05-01T23:34:31.785Z,13.77
2023-05-01T23:37:35.244Z,21.67
2023-05-01T23:40:39.985Z,16.83
2023-05-01T23:43:46.643Z,14.00
2023-05-01T23:46:50.159Z,19.60
2023-05-01T23:49:53.752Z,13.00
2023-05-01T23:52:57.733Z,15.07
2023-05-01T23:56:01.586Z,13.23
2023-05-01T23:59:05.061Z,22.67
